VTCC/CNX METAR and TAF weather

Enter ICAO airport designator
Station Type Date Time Source
VTCC METAR 2022/01/29 01:00 UTC NOAA

VTCC 290100Z VRB02KT 9999 FEW035 18/15 Q1013 NOSIG


Station Type Date Time Source
VTCC Decoded METAR 2022/01/29 01:00 UTC NOAA

Chiang Mai, Thailand (VTCC) 18-47N 098-59E 314M
Jan 28, 2022 - 08:00 PM EST / 2022.01.29 0100 UTC
Wind: Variable at 2 MPH (2 KT):0
Visibility: greater than 7 mile(s):0
Sky conditions: mostly clear
Temperature: 64 F (18 C)
Dew Point: 59 F (15 C)
Relative Humidity: 82%
Pressure (altimeter): 29.91 in. Hg (1013 hPa)
ob: VTCC 290100Z VRB02KT 9999 FEW035 18/15 Q1013 NOSIG
cycle: 1

Station Type Date Time Source
VTCC TAF 2022/01/28 18:37 UTC NOAA

TAF VTCC 281700Z 2818/2924 30005KT 9999 FEW035
BECMG 2820/2822 22005KT
BECMG 2901/2903 16005KT
BECMG 2904/2906 24005KT
BECMG 2916/2918 32005KT

Example: see airport list